createdAt,value
2017-07-03T00:01:07.601Z,86.60
2017-07-03T00:03:35.124Z,86.50
2017-07-03T00:06:02.636Z,86.80
2017-07-03T00:08:30.164Z,86.80
2017-07-03T00:10:58.446Z,86.90
2017-07-03T00:13:25.977Z,86.80
2017-07-03T00:15:53.491Z,86.80
2017-07-03T00:18:21.036Z,86.90
2017-07-03T00:20:48.533Z,86.90
2017-07-03T00:23:16.060Z,86.00
2017-07-03T00:25:43.571Z,86.90
2017-07-03T00:28:11.912Z,87.20
2017-07-03T00:30:39.412Z,87.10
2017-07-03T00:33:06.933Z,86.10
2017-07-03T00:35:34.444Z,87.40
2017-07-03T00:38:01.965Z,86.80
2017-07-03T00:40:29.493Z,86.50
2017-07-03T00:42:57.041Z,86.50
2017-07-03T00:45:24.549Z,85.80
2017-07-03T00:47:52.062Z,86.00
2017-07-03T00:50:19.655Z,85.40
2017-07-03T00:52:47.151Z,85.80
2017-07-03T00:55:14.693Z,86.00
2017-07-03T00:57:42.201Z,85.70
2017-07-03T01:00:09.724Z,85.50
2017-07-03T01:02:37.997Z,86.80
2017-07-03T01:05:09.823Z,86.30
2017-07-03T01:07:37.334Z,86.00
2017-07-03T01:10:04.860Z,85.90
2017-07-03T01:12:32.376Z,86.10
2017-07-03T01:14:59.924Z,85.00
2017-07-03T01:17:27.451Z,85.40
2017-07-03T01:19:55.749Z,86.10
2017-07-03T01:22:23.258Z,86.00
2017-07-03T01:24:50.813Z,86.60
2017-07-03T01:27:18.319Z,86.70
2017-07-03T01:29:45.860Z,87.00
2017-07-03T01:32:14.152Z,86.10
2017-07-03T01:34:41.680Z,85.90
2017-07-03T01:37:09.197Z,86.40
2017-07-03T01:39:36.729Z,86.70
2017-07-03T01:42:04.250Z,87.00
2017-07-03T01:44:31.793Z,86.70
2017-07-03T01:46:59.333Z,86.70
2017-07-03T01:49:26.865Z,86.60
2017-07-03T01:51:54.380Z,87.00
2017-07-03T01:54:21.932Z,87.40
2017-07-03T01:56:49.445Z,86.80
2017-07-03T01:59:16.964Z,87.10
2017-07-03T02:01:45.257Z,87.50
2017-07-03T02:04:13.545Z,87.90
2017-07-03T02:06:41.053Z,87.70
2017-07-03T02:09:08.599Z,86.80
2017-07-03T02:11:36.101Z,87.60
2017-07-03T02:14:04.404Z,86.70
2017-07-03T02:16:31.924Z,86.70
2017-07-03T02:18:59.454Z,86.50
2017-07-03T02:21:26.976Z,85.80
2017-07-03T02:23:54.492Z,86.20
2017-07-03T02:26:21.988Z,86.50
2017-07-03T02:28:49.514Z,86.40
2017-07-03T02:31:17.021Z,87.40
2017-07-03T02:33:44.598Z,86.80
2017-07-03T02:36:12.124Z,87.30
2017-07-03T02:38:39.640Z,87.40
2017-07-03T02:41:07.147Z,86.80
2017-07-03T02:43:34.676Z,87.30
2017-07-03T02:46:02.942Z,87.20
2017-07-03T02:48:30.482Z,87.10
2017-07-03T02:50:57.992Z,86.60
2017-07-03T02:53:25.581Z,87.30
2017-07-03T02:55:53.084Z,87.40
2017-07-03T02:58:20.617Z,87.20
2017-07-03T03:00:48.127Z,87.10
2017-07-03T03:03:15.649Z,86.80
2017-07-03T03:05:43.153Z,87.50
2017-07-03T03:08:10.684Z,87.70
2017-07-03T03:10:38.951Z,87.20
2017-07-03T03:13:06.470Z,87.20
2017-07-03T03:15:33.984Z,87.50
2017-07-03T03:18:01.512Z,87.80
2017-07-03T03:20:29.028Z,87.70
2017-07-03T03:22:56.580Z,87.50
2017-07-03T03:25:24.085Z,87.50
2017-07-03T03:27:51.607Z,87.50
2017-07-03T03:30:19.105Z,87.60
2017-07-03T03:32:46.636Z,87.70
2017-07-03T03:35:14.160Z,87.80
2017-07-03T03:37:41.720Z,87.10
2017-07-03T03:40:09.239Z,87.70
2017-07-03T03:42:36.765Z,87.50
2017-07-03T03:45:04.264Z,87.00
2017-07-03T03:47:32.557Z,87.40
2017-07-03T03:50:00.066Z,87.20
2017-07-03T03:52:27.589Z,87.20
2017-07-03T03:54:55.113Z,87.40
2017-07-03T03:57:23.414Z,86.80
2017-07-03T03:59:50.937Z,87.40
2017-07-03T04:02:18.879Z,87.20
2017-07-03T04:04:46.384Z,87.30
2017-07-03T04:07:14.680Z,86.70
2017-07-03T04:09:42.184Z,86.60
2017-07-03T04:12:09.704Z,86.50
2017-07-03T04:14:37.217Z,86.80
2017-07-03T04:17:04.755Z,86.40
2017-07-03T04:19:32.252Z,86.40
2017-07-03T04:21:59.776Z,86.40
2017-07-03T04:24:27.288Z,86.70
2017-07-03T04:26:54.847Z,87.00
2017-07-03T04:29:22.372Z,86.60
2017-07-03T04:31:49.880Z,86.40
2017-07-03T04:34:17.371Z,86.20
2017-07-03T04:36:44.918Z,85.60
2017-07-03T04:39:12.425Z,84.90
2017-07-03T04:41:39.967Z,85.00
2017-07-03T04:44:07.471Z,85.00
2017-07-03T04:46:34.984Z,84.90
2017-07-03T04:49:03.320Z,84.40
2017-07-03T04:51:30.839Z,84.00
2017-07-03T04:53:58.344Z,83.80
2017-07-03T04:56:26.637Z,83.10
2017-07-03T04:58:54.147Z,82.90
2017-07-03T05:01:21.664Z,83.40
2017-07-03T05:03:49.182Z,82.90
2017-07-03T05:06:17.467Z,82.80
2017-07-03T05:08:45.733Z,81.90
2017-07-03T05:11:14.052Z,81.60
2017-07-03T05:13:41.558Z,81.50
2017-07-03T05:16:09.101Z,81.60
2017-07-03T05:18:36.669Z,81.60
2017-07-03T05:21:04.256Z,81.20
2017-07-03T05:23:31.820Z,81.70
2017-07-03T05:25:59.408Z,82.50
2017-07-03T05:28:26.937Z,82.10
2017-07-03T05:30:54.517Z,82.40
2017-07-03T05:33:22.052Z,82.70
2017-07-03T05:35:50.416Z,82.90
2017-07-03T05:38:18.760Z,82.50
2017-07-03T05:40:46.314Z,82.40
2017-07-03T05:43:19.565Z,82.10
2017-07-03T05:45:47.115Z,82.50
2017-07-03T05:48:15.466Z,81.60
2017-07-03T05:50:43.780Z,80.40
2017-07-03T05:53:11.340Z,80.30
2017-07-03T05:55:38.896Z,80.30
2017-07-03T05:58:06.426Z,80.00
2017-07-03T06:00:33.972Z,80.00
2017-07-03T06:03:01.514Z,79.70
2017-07-03T06:05:29.056Z,79.10
2017-07-03T06:07:56.604Z,77.70
2017-07-03T06:10:24.122Z,77.40
2017-07-03T06:12:51.659Z,77.60
2017-07-03T06:15:19.177Z,76.80
2017-07-03T06:17:46.752Z,75.80
2017-07-03T06:20:14.301Z,74.30
2017-07-03T06:22:41.904Z,71.80
2017-07-03T06:25:10.253Z,61.20
2017-07-03T06:27:37.864Z,61.10
2017-07-03T06:30:05.477Z,59.50
2017-07-03T06:32:33.072Z,60.90
2017-07-03T06:35:01.014Z,63.10
2017-07-03T06:37:28.673Z,64.30
2017-07-03T06:39:56.276Z,66.20
2017-07-03T06:42:23.876Z,67.30
2017-07-03T06:44:51.463Z,66.50
2017-07-03T06:47:25.267Z,66.60
2017-07-03T06:49:53.029Z,66.70
2017-07-03T06:52:24.686Z,61.20
2017-07-03T06:57:55.443Z,62.30
2017-07-03T07:00:36.613Z,62.70
2017-07-03T07:03:19.714Z,63.10
2017-07-03T07:08:47.064Z,63.30
2017-07-03T07:13:54.985Z,63.90
2017-07-03T07:16:22.828Z,64.20
2017-07-03T07:18:51.819Z,61.60
2017-07-03T07:21:23.106Z,63.00
2017-07-03T07:23:53.951Z,61.80
2017-07-03T07:26:24.791Z,63.10
2017-07-03T07:28:56.925Z,60.80
2017-07-03T07:31:33.621Z,60.80
2017-07-03T07:34:01.870Z,62.10
2017-07-03T07:39:18.445Z,63.20
2017-07-03T07:44:42.113Z,59.00
2017-07-03T07:55:49.226Z,55.80
2017-07-03T08:10:11.734Z,53.20
2017-07-03T08:12:47.501Z,54.80
2017-07-03T08:15:22.634Z,56.60
2017-07-03T08:17:59.233Z,55.90
2017-07-03T08:23:20.466Z,53.90
2017-07-03T08:25:54.201Z,53.80
2017-07-03T08:31:12.311Z,53.00
2017-07-03T08:33:57.186Z,51.60
2017-07-03T08:39:19.180Z,52.10
2017-07-03T08:44:58.846Z,50.70
2017-07-03T08:53:10.743Z,52.50
2017-07-03T08:55:50.522Z,52.50
2017-07-03T08:58:35.098Z,52.70
2017-07-03T09:07:07.662Z,53.30
2017-07-03T09:09:35.370Z,51.20
2017-07-03T09:12:03.657Z,51.40
2017-07-03T09:14:31.151Z,52.10
2017-07-03T09:16:59.445Z,53.20
2017-07-03T09:19:26.964Z,53.20
2017-07-03T09:21:57.353Z,54.90
2017-07-03T09:24:33.740Z,54.80
2017-07-03T09:27:02.048Z,55.60
2017-07-03T09:29:29.554Z,55.60
2017-07-03T09:31:57.047Z,54.40
2017-07-03T09:34:24.552Z,52.20
2017-07-03T09:36:52.809Z,52.00
2017-07-03T09:39:20.291Z,51.90
2017-07-03T09:41:48.571Z,52.00
2017-07-03T09:44:16.064Z,51.90
2017-07-03T09:46:43.567Z,49.80
2017-07-03T09:49:11.061Z,50.60
2017-07-03T09:51:38.573Z,50.40
2017-07-03T09:54:06.055Z,50.80
2017-07-03T09:56:34.332Z,50.80
2017-07-03T09:59:02.583Z,49.80
2017-07-03T10:01:30.092Z,49.70
2017-07-03T10:03:57.576Z,49.10
2017-07-03T10:06:25.080Z,50.00
2017-07-03T10:08:53.345Z,49.40
2017-07-03T10:11:20.852Z,49.30
2017-07-03T10:13:48.336Z,49.30
2017-07-03T10:16:15.838Z,50.30
2017-07-03T10:18:47.123Z,48.90
2017-07-03T10:21:14.633Z,48.80
2017-07-03T10:23:42.113Z,49.70
2017-07-03T10:26:10.383Z,48.80
2017-07-03T10:28:38.635Z,50.50
2017-07-03T10:31:06.139Z,49.70
2017-07-03T10:33:33.631Z,51.40
2017-07-03T10:36:01.140Z,52.30
2017-07-03T10:38:29.397Z,53.70
2017-07-03T10:40:56.904Z,53.60
2017-07-03T10:43:26.224Z,53.20
2017-07-03T10:45:53.766Z,53.30
2017-07-03T10:48:21.252Z,52.20
2017-07-03T10:50:48.751Z,54.30
2017-07-03T10:53:16.235Z,52.40
2017-07-03T10:55:43.741Z,53.90
2017-07-03T10:58:11.234Z,53.00
2017-07-03T11:00:38.748Z,53.00
2017-07-03T11:03:06.241Z,51.00
2017-07-03T11:05:33.757Z,50.10
2017-07-03T11:08:01.257Z,50.20
2017-07-03T11:10:28.767Z,50.10
2017-07-03T11:12:56.263Z,49.20
2017-07-03T11:15:23.771Z,49.80
2017-07-03T11:17:51.261Z,50.60
2017-07-03T11:20:18.770Z,52.00
2017-07-03T11:22:47.024Z,53.10
2017-07-03T11:25:14.531Z,53.10
2017-07-03T11:27:42.023Z,50.10
2017-07-03T11:30:09.540Z,48.30
2017-07-03T11:32:37.083Z,50.80
2017-07-03T11:35:04.660Z,53.30
2017-07-03T11:37:32.159Z,52.10
2017-07-03T11:39:59.668Z,50.70
2017-07-03T11:42:27.152Z,53.00
2017-07-03T11:44:54.661Z,51.20
2017-07-03T11:47:22.148Z,51.30
2017-07-03T11:49:49.672Z,50.80
2017-07-03T11:52:17.165Z,52.10
2017-07-03T11:54:45.459Z,50.20
2017-07-03T11:57:12.943Z,50.10
2017-07-03T11:59:40.452Z,50.90
2017-07-03T12:02:07.954Z,50.60
2017-07-03T12:04:35.462Z,50.70
2017-07-03T12:07:03.722Z,49.40
2017-07-03T12:09:31.228Z,49.20
2017-07-03T12:11:58.707Z,48.10
2017-07-03T12:14:26.228Z,47.50
2017-07-03T12:17:00.235Z,48.70
2017-07-03T12:19:27.740Z,48.00
2017-07-03T12:21:55.253Z,45.70
2017-07-03T12:24:23.528Z,46.40
2017-07-03T12:26:51.770Z,45.20
2017-07-03T12:29:19.285Z,45.10
2017-07-03T12:31:46.789Z,47.10
2017-07-03T12:34:14.305Z,47.00
2017-07-03T12:36:41.791Z,45.90
2017-07-03T12:39:09.296Z,47.20
2017-07-03T12:41:36.800Z,47.30
2017-07-03T12:44:04.308Z,48.40
2017-07-03T12:46:31.792Z,47.60
2017-07-03T12:49:00.061Z,47.90
2017-07-03T12:51:28.306Z,49.30
2017-07-03T12:53:55.813Z,49.30
2017-07-03T12:56:23.296Z,49.00
2017-07-03T12:58:50.803Z,49.70
2017-07-03T13:01:18.289Z,49.10
2017-07-03T13:03:45.801Z,49.10
2017-07-03T13:06:13.283Z,49.30
2017-07-03T13:08:40.789Z,50.10
2017-07-03T13:11:08.275Z,47.70
2017-07-03T13:13:35.780Z,49.30
2017-07-03T13:16:03.267Z,45.40
2017-07-03T13:18:30.765Z,46.90
2017-07-03T13:20:58.255Z,45.10
2017-07-03T13:23:25.772Z,45.80
2017-07-03T13:25:53.251Z,45.10
2017-07-03T13:28:20.756Z,44.00
2017-07-03T13:30:48.249Z,43.50
2017-07-03T13:33:15.752Z,44.60
2017-07-03T13:35:44.163Z,47.70
2017-07-03T13:38:11.680Z,47.60
2017-07-03T13:40:39.943Z,46.20
2017-07-03T13:43:07.464Z,46.20
2017-07-03T13:45:34.961Z,45.90
2017-07-03T13:48:02.467Z,45.90
2017-07-03T13:50:29.952Z,46.70
2017-07-03T13:52:57.463Z,46.90
2017-07-03T13:55:25.703Z,44.10
2017-07-03T13:57:53.211Z,44.00
2017-07-03T14:00:20.699Z,45.40
2017-07-03T14:02:48.204Z,43.80
2017-07-03T14:05:16.456Z,46.30
2017-07-03T14:07:43.959Z,46.20
2017-07-03T14:10:11.447Z,42.50
2017-07-03T14:12:39.191Z,44.20
2017-07-03T14:15:06.676Z,44.50
2017-07-03T14:17:34.188Z,44.50
2017-07-03T14:20:02.432Z,44.00
2017-07-03T14:22:29.943Z,44.00
2017-07-03T14:24:57.428Z,43.00
2017-07-03T14:27:25.152Z,42.50
2017-07-03T14:29:52.645Z,41.70
2017-07-03T14:32:20.159Z,41.50
2017-07-03T14:34:48.409Z,42.20
2017-07-03T14:37:15.919Z,42.10
2017-07-03T14:39:43.404Z,41.90
2017-07-03T14:42:10.892Z,41.70
2017-07-03T14:44:38.399Z,42.10
2017-07-03T14:47:06.104Z,43.10
2017-07-03T14:49:33.604Z,43.70
2017-07-03T14:52:01.871Z,45.50
2017-07-03T14:54:29.361Z,45.30
2017-07-03T14:56:56.852Z,45.80
2017-07-03T14:59:24.363Z,46.60
2017-07-03T15:01:52.631Z,45.60
2017-07-03T15:04:20.925Z,46.20
2017-07-03T15:06:48.408Z,46.10
2017-07-03T15:09:15.912Z,45.70
2017-07-03T15:11:43.404Z,42.90
2017-07-03T15:14:10.919Z,45.40
2017-07-03T15:16:38.420Z,43.70
2017-07-03T15:19:05.989Z,43.80
2017-07-03T15:21:33.476Z,42.50
2017-07-03T15:24:00.991Z,42.20
2017-07-03T15:26:28.484Z,42.80
2017-07-03T15:28:55.984Z,43.90
2017-07-03T15:31:23.471Z,44.20
2017-07-03T15:33:50.989Z,43.90
2017-07-03T15:36:18.476Z,43.80
2017-07-03T15:38:46.755Z,43.20
2017-07-03T15:41:15.014Z,43.00
2017-07-03T15:43:42.739Z,43.00
2017-07-03T15:46:10.223Z,42.10
2017-07-03T15:48:37.735Z,41.00
2017-07-03T15:51:05.221Z,44.20
2017-07-03T15:53:32.728Z,43.70
2017-07-03T15:56:00.981Z,44.80
2017-07-03T15:58:28.486Z,44.80
2017-07-03T16:00:56.265Z,44.80
2017-07-03T16:03:23.785Z,46.10
2017-07-03T16:05:52.043Z,46.60
2017-07-03T16:08:19.565Z,46.20
2017-07-03T16:10:47.053Z,45.10
2017-07-03T16:13:14.557Z,44.70
2017-07-03T16:15:43.299Z,45.10
2017-07-03T16:18:10.807Z,44.80
2017-07-03T16:20:39.064Z,45.80
2017-07-03T16:23:06.563Z,45.80
2017-07-03T16:25:34.052Z,45.30
2017-07-03T16:28:01.571Z,44.10
2017-07-03T16:30:29.046Z,44.20
2017-07-03T16:32:56.548Z,43.00
2017-07-03T16:35:24.040Z,41.90
2017-07-03T16:37:51.564Z,41.40
2017-07-03T16:40:19.056Z,41.50
2017-07-03T16:42:46.586Z,43.80
2017-07-03T16:45:14.076Z,41.20
2017-07-03T16:47:41.584Z,42.40
2017-07-03T16:50:09.068Z,43.30
2017-07-03T16:52:36.577Z,43.50
2017-07-03T16:55:04.081Z,43.10
2017-07-03T16:57:31.588Z,43.90
2017-07-03T16:59:59.075Z,43.60
2017-07-03T17:02:26.580Z,43.90
2017-07-03T17:04:54.832Z,44.60
2017-07-03T17:07:22.339Z,44.60
2017-07-03T17:09:49.827Z,44.30
2017-07-03T17:12:17.328Z,45.10
2017-07-03T17:14:45.587Z,46.10
2017-07-03T17:17:13.097Z,45.70
2017-07-03T17:19:40.581Z,47.20
2017-07-03T17:22:08.098Z,46.00
2017-07-03T17:24:35.591Z,45.60
2017-07-03T17:27:03.100Z,46.00
2017-07-03T17:29:30.593Z,46.10
2017-07-03T17:31:58.096Z,47.20
2017-07-03T17:34:25.585Z,47.70
2017-07-03T17:36:53.105Z,46.70
2017-07-03T17:39:20.593Z,47.20
2017-07-03T17:41:48.103Z,47.20
2017-07-03T17:44:15.589Z,47.50
2017-07-03T17:46:43.101Z,47.00
2017-07-03T17:49:10.588Z,46.70
2017-07-03T17:51:38.116Z,45.40
2017-07-03T17:54:05.601Z,46.00
2017-07-03T17:56:33.113Z,46.70
2017-07-03T17:59:01.596Z,47.20
2017-07-03T18:01:29.880Z,48.10
2017-07-03T18:03:58.131Z,48.30
2017-07-03T18:06:25.644Z,48.30
2017-07-03T18:08:53.129Z,48.10
2017-07-03T18:11:20.640Z,49.00
2017-07-03T18:13:48.896Z,49.50
2017-07-03T18:16:17.172Z,50.00
2017-07-03T18:18:44.656Z,49.20
2017-07-03T18:21:12.159Z,49.90
2017-07-03T18:23:39.657Z,49.30
2017-07-03T18:26:07.928Z,51.30
2017-07-03T18:28:36.188Z,50.60
2017-07-03T18:31:03.703Z,51.00
2017-07-03T18:33:31.196Z,50.30
2017-07-03T18:35:58.727Z,50.60
2017-07-03T18:38:26.213Z,51.30
2017-07-03T18:40:53.711Z,52.00
2017-07-03T18:43:21.960Z,52.40
2017-07-03T18:45:49.463Z,52.20
2017-07-03T18:48:17.177Z,52.10
2017-07-03T18:50:44.908Z,52.50
2017-07-03T18:53:12.402Z,54.20
2017-07-03T18:55:40.139Z,53.70
2017-07-03T18:58:07.627Z,54.70
2017-07-03T19:00:35.348Z,55.10
2017-07-03T19:03:02.915Z,55.80
2017-07-03T19:05:30.417Z,55.80
2017-07-03T19:07:57.976Z,56.10
2017-07-03T19:10:25.480Z,56.10
2017-07-03T19:12:52.968Z,56.40
2017-07-03T19:15:20.557Z,57.00
2017-07-03T19:17:48.016Z,56.30
2017-07-03T19:20:15.519Z,56.50
2017-07-03T19:22:43.021Z,56.20
2017-07-03T19:25:10.509Z,56.40
2017-07-03T19:27:38.775Z,56.90
2017-07-03T19:30:06.271Z,56.70
2017-07-03T19:32:33.783Z,57.30
2017-07-03T19:35:01.291Z,57.80
2017-07-03T19:37:28.804Z,57.70
2017-07-03T19:39:56.292Z,59.20
2017-07-03T19:42:24.567Z,58.70
2017-07-03T19:44:52.820Z,59.30
2017-07-03T19:47:20.333Z,59.20
2017-07-03T19:49:47.828Z,59.10
2017-07-03T19:52:15.335Z,58.70
2017-07-03T19:54:42.837Z,58.90
2017-07-03T19:57:10.349Z,58.80
2017-07-03T19:59:37.844Z,59.60
2017-07-03T20:02:05.355Z,60.20
2017-07-03T20:04:33.608Z,60.30
2017-07-03T20:07:01.127Z,60.20
2017-07-03T20:09:28.628Z,60.80
2017-07-03T20:11:56.139Z,60.60
2017-07-03T20:14:23.636Z,60.90
2017-07-03T20:16:51.147Z,61.10
2017-07-03T20:19:18.655Z,61.50
2017-07-03T20:21:46.168Z,61.60
2017-07-03T20:24:13.662Z,62.10
2017-07-03T20:26:41.231Z,61.60
2017-07-03T20:29:08.727Z,62.00
2017-07-03T20:31:36.995Z,61.90
2017-07-03T20:34:05.252Z,63.30
2017-07-03T20:36:32.759Z,62.40
2017-07-03T20:39:00.304Z,63.10
2017-07-03T20:41:27.818Z,63.10
2017-07-03T20:43:55.309Z,63.80
2017-07-03T20:46:23.603Z,63.50
2017-07-03T20:48:51.116Z,63.20
2017-07-03T20:51:18.631Z,63.10
2017-07-03T20:53:46.118Z,63.00
2017-07-03T20:56:13.692Z,63.60
2017-07-03T20:58:41.176Z,63.20
2017-07-03T21:01:08.683Z,64.80
2017-07-03T21:03:36.192Z,64.40
2017-07-03T21:06:04.148Z,64.00
2017-07-03T21:08:31.637Z,65.00
2017-07-03T21:10:59.907Z,65.50
2017-07-03T21:13:27.400Z,65.40
2017-07-03T21:15:54.905Z,64.90
2017-07-03T21:18:22.401Z,64.90
2017-07-03T21:20:49.920Z,64.40
2017-07-03T21:23:17.415Z,64.60
2017-07-03T21:25:45.692Z,65.80
2017-07-03T21:28:13.944Z,64.60
2017-07-03T21:30:41.457Z,64.50
2017-07-03T21:33:08.944Z,64.80
2017-07-03T21:35:36.459Z,65.80
2017-07-03T21:38:03.959Z,65.80
2017-07-03T21:40:31.475Z,65.10
2017-07-03T21:42:58.967Z,66.00
2017-07-03T21:45:26.474Z,66.70
2017-07-03T21:47:54.731Z,65.50
2017-07-03T21:50:22.245Z,65.90
2017-07-03T21:52:49.764Z,66.50
2017-07-03T21:55:18.048Z,67.00
2017-07-03T21:57:46.308Z,67.10
2017-07-03T22:00:13.812Z,67.00
2017-07-03T22:02:41.534Z,66.30
2017-07-03T22:05:09.050Z,66.20
2017-07-03T22:07:36.537Z,66.20
2017-07-03T22:10:04.051Z,66.30
2017-07-03T22:12:31.537Z,66.50
2017-07-03T22:14:59.043Z,67.40
2017-07-03T22:17:26.537Z,66.90
2017-07-03T22:19:54.046Z,66.90
2017-07-03T22:22:21.531Z,67.40
2017-07-03T22:24:49.810Z,67.50
2017-07-03T22:27:18.067Z,66.80
2017-07-03T22:29:45.573Z,66.80
2017-07-03T22:32:13.061Z,66.80
2017-07-03T22:34:40.699Z,67.50
2017-07-03T22:37:08.197Z,67.50
2017-07-03T22:39:35.704Z,67.80
2017-07-03T22:42:03.191Z,67.80
2017-07-03T22:44:30.695Z,67.70
2017-07-03T22:46:58.968Z,68.50
2017-07-03T22:49:26.484Z,68.40
2017-07-03T22:51:54.637Z,68.10
2017-07-03T22:54:22.149Z,68.50
2017-07-03T22:56:49.895Z,69.60
2017-07-03T22:59:17.404Z,68.50
2017-07-03T23:01:44.897Z,68.90
2017-07-03T23:04:12.412Z,68.50
2017-07-03T23:06:40.681Z,69.00
2017-07-03T23:09:08.940Z,70.00
2017-07-03T23:11:36.452Z,69.10
2017-07-03T23:14:03.944Z,69.60
2017-07-03T23:16:31.457Z,69.50
2017-07-03T23:18:58.944Z,69.20
2017-07-03T23:21:26.456Z,69.90
2017-07-03T23:23:54.707Z,70.80
2017-07-03T23:26:22.216Z,70.00
2017-07-03T23:28:49.725Z,70.10
2017-07-03T23:31:17.236Z,70.30
2017-07-03T23:33:44.749Z,69.60
2017-07-03T23:36:13.058Z,69.50
2017-07-03T23:38:41.535Z,69.60
2017-07-03T23:41:09.823Z,69.50
2017-07-03T23:43:37.325Z,69.40
2017-07-03T23:46:04.845Z,69.20
2017-07-03T23:48:32.337Z,69.60
2017-07-03T23:50:59.892Z,69.40
2017-07-03T23:53:27.382Z,69.80
2017-07-03T23:55:54.887Z,69.80
2017-07-03T23:58:22.391Z,69.60
